Bethany, Canada
Current Conditions -  °F | °C
As of 12:49 PM on Saturday 22 Nov 2014 (Local Time) from CYPQ Reporting Station
Light Rain Light Rain  
Wind Chill: 29°   Ceiling: 2300
Heat Index: 37°   Visibility: 9mi
Dew Point: 30°   Wind: 14mph
Humidity: 75%   Direction: 210°SSW
Pressure: 29.93"   Gusts: 21mph
Location:  44.18°N, 78.57°W
Report Text: CYPQ 221749Z AUTO 21012G18KT 9SM -RA OVC023 03/M01 A2993 RMK PRESFR SLP145
Loading
Personal Weather Stations






























Interactive Weather Map New forecast layout! Learn more

10-Day Weather Forecast

Advertisements
Track Severe Weather on mobile